sensor_id;sensor_type;location;lat;lon;timestamp;P1;durP1;ratioP1;P2;durP2;ratioP2
25915;SDS011;13719;48.188;11.618;2023-07-13T00:01:22;3.15;;;1.48;;
25915;SDS011;13719;48.188;11.618;2023-07-13T00:03:51;2.85;;;1.75;;
25915;SDS011;13719;48.188;11.618;2023-07-13T00:06:19;2.97;;;1.70;;
25915;SDS011;13719;48.188;11.618;2023-07-13T00:08:47;3.30;;;1.33;;
25915;SDS011;13719;48.188;11.618;2023-07-13T00:11:16;4.15;;;1.80;;
25915;SDS011;13719;48.188;11.618;2023-07-13T00:13:45;3.92;;;1.70;;
25915;SDS011;13719;48.188;11.618;2023-07-13T00:16:14;2.58;;;1.60;;
25915;SDS011;13719;48.188;11.618;2023-07-13T00:18:45;5.20;;;1.85;;
25915;SDS011;13719;48.188;11.618;2023-07-13T00:21:13;5.03;;;2.00;;
25915;SDS011;13719;48.188;11.618;2023-07-13T00:23:42;3.97;;;1.60;;
25915;SDS011;13719;48.188;11.618;2023-07-13T00:26:11;2.75;;;1.67;;
25915;SDS011;13719;48.188;11.618;2023-07-13T00:28:40;4.07;;;1.67;;
25915;SDS011;13719;48.188;11.618;2023-07-13T00:31:08;3.17;;;1.70;;
25915;SDS011;13719;48.188;11.618;2023-07-13T00:33:38;2.35;;;1.55;;
25915;SDS011;13719;48.188;11.618;2023-07-13T00:36:07;3.17;;;1.55;;
25915;SDS011;13719;48.188;11.618;2023-07-13T00:38:36;3.95;;;1.65;;
25915;SDS011;13719;48.188;11.618;2023-07-13T00:41:05;2.20;;;1.63;;
25915;SDS011;13719;48.188;11.618;2023-07-13T00:43:33;3.65;;;1.58;;
25915;SDS011;13719;48.188;11.618;2023-07-13T00:48:49;4.07;;;1.65;;
25915;SDS011;13719;48.188;11.618;2023-07-13T00:51:19;1.48;;;1.05;;
25915;SDS011;13719;48.188;11.618;2023-07-13T00:53:49;1.98;;;1.35;;
25915;SDS011;13719;48.188;11.618;2023-07-13T00:56:17;1.77;;;1.48;;
25915;SDS011;13719;48.188;11.618;2023-07-13T00:58:46;2.22;;;1.40;;
25915;SDS011;13719;48.188;11.618;2023-07-13T01:01:14;6.68;;;1.75;;
25915;SDS011;13719;48.188;11.618;2023-07-13T01:03:43;3.08;;;1.58;;
25915;SDS011;13719;48.188;11.618;2023-07-13T01:06:14;2.33;;;1.55;;
25915;SDS011;13719;48.188;11.618;2023-07-13T01:08:44;2.10;;;1.40;;
25915;SDS011;13719;48.188;11.618;2023-07-13T01:11:12;2.40;;;1.40;;
25915;SDS011;13719;48.188;11.618;2023-07-13T01:13:46;2.15;;;1.30;;
25915;SDS011;13719;48.188;11.618;2023-07-13T01:16:15;2.13;;;1.38;;
25915;SDS011;13719;48.188;11.618;2023-07-13T01:18:46;2.30;;;1.33;;
25915;SDS011;13719;48.188;11.618;2023-07-13T01:21:15;3.33;;;1.95;;
25915;SDS011;13719;48.188;11.618;2023-07-13T01:23:45;3.83;;;1.40;;
25915;SDS011;13719;48.188;11.618;2023-07-13T01:26:14;3.10;;;1.70;;
25915;SDS011;13719;48.188;11.618;2023-07-13T01:28:42;1.92;;;1.40;;
25915;SDS011;13719;48.188;11.618;2023-07-13T01:31:11;2.10;;;1.30;;
25915;SDS011;13719;48.188;11.618;2023-07-13T01:33:40;3.90;;;1.60;;
25915;SDS011;13719;48.188;11.618;2023-07-13T01:36:09;1.60;;;1.17;;
25915;SDS011;13719;48.188;11.618;2023-07-13T01:38:39;2.42;;;1.40;;
25915;SDS011;13719;48.188;11.618;2023-07-13T01:41:10;4.72;;;1.60;;
25915;SDS011;13719;48.188;11.618;2023-07-13T01:43:39;2.85;;;1.30;;
25915;SDS011;13719;48.188;11.618;2023-07-13T01:46:07;2.00;;;1.13;;
25915;SDS011;13719;48.188;11.618;2023-07-13T01:48:49;2.58;;;1.27;;
25915;SDS011;13719;48.188;11.618;2023-07-13T01:51:18;1.67;;;1.10;;
25915;SDS011;13719;48.188;11.618;2023-07-13T01:53:47;2.70;;;1.52;;
25915;SDS011;13719;48.188;11.618;2023-07-13T01:56:16;2.33;;;1.50;;
25915;SDS011;13719;48.188;11.618;2023-07-13T01:58:45;4.07;;;1.73;;
25915;SDS011;13719;48.188;11.618;2023-07-13T02:01:13;2.97;;;1.45;;
25915;SDS011;13719;48.188;11.618;2023-07-13T02:03:42;3.08;;;1.30;;
25915;SDS011;13719;48.188;11.618;2023-07-13T02:06:10;2.67;;;1.40;;
25915;SDS011;13719;48.188;11.618;2023-07-13T02:08:39;2.80;;;1.60;;
25915;SDS011;13719;48.188;11.618;2023-07-13T02:11:09;2.00;;;1.25;;
25915;SDS011;13719;48.188;11.618;2023-07-13T02:13:38;2.67;;;1.33;;
25915;SDS011;13719;48.188;11.618;2023-07-13T02:16:06;2.80;;;1.50;;
25915;SDS011;13719;48.188;11.618;2023-07-13T02:18:35;2.45;;;1.23;;
25915;SDS011;13719;48.188;11.618;2023-07-13T02:21:03;1.52;;;1.20;;
25915;SDS011;13719;48.188;11.618;2023-07-13T02:23:32;4.38;;;1.95;;
25915;SDS011;13719;48.188;11.618;2023-07-13T02:26:01;3.35;;;1.30;;
25915;SDS011;13719;48.188;11.618;2023-07-13T02:28:31;2.30;;;1.30;;
25915;SDS011;13719;48.188;11.618;2023-07-13T02:31:06;2.25;;;1.40;;
25915;SDS011;13719;48.188;11.618;2023-07-13T02:33:35;2.75;;;1.38;;
25915;SDS011;13719;48.188;11.618;2023-07-13T02:36:04;1.90;;;1.30;;
25915;SDS011;13719;48.188;11.618;2023-07-13T02:38:33;3.35;;;1.88;;
25915;SDS011;13719;48.188;11.618;2023-07-13T02:41:02;4.65;;;1.60;;
25915;SDS011;13719;48.188;11.618;2023-07-13T02:43:32;4.13;;;2.08;;
25915;SDS011;13719;48.188;11.618;2023-07-13T02:46:01;3.75;;;1.85;;
25915;SDS011;13719;48.188;11.618;2023-07-13T02:48:34;4.60;;;2.63;;
25915;SDS011;13719;48.188;11.618;2023-07-13T02:51:03;6.30;;;2.22;;
25915;SDS011;13719;48.188;11.618;2023-07-13T02:53:31;4.55;;;2.22;;
25915;SDS011;13719;48.188;11.618;2023-07-13T02:56:02;4.82;;;2.42;;
25915;SDS011;13719;48.188;11.618;2023-07-13T02:58:32;4.10;;;2.20;;
25915;SDS011;13719;48.188;11.618;2023-07-13T03:01:05;7.10;;;2.20;;
25915;SDS011;13719;48.188;11.618;2023-07-13T03:03:34;4.55;;;1.90;;
25915;SDS011;13719;48.188;11.618;2023-07-13T03:06:03;3.40;;;1.80;;
25915;SDS011;13719;48.188;11.618;2023-07-13T03:08:34;3.67;;;1.90;;
25915;SDS011;13719;48.188;11.618;2023-07-13T03:11:03;4.38;;;2.15;;
25915;SDS011;13719;48.188;11.618;2023-07-13T03:13:34;4.45;;;2.40;;
25915;SDS011;13719;48.188;11.618;2023-07-13T03:16:03;4.57;;;2.38;;
25915;SDS011;13719;48.188;11.618;2023-07-13T03:18:32;4.60;;;2.65;;
25915;SDS011;13719;48.188;11.618;2023-07-13T03:21:00;5.63;;;2.10;;
25915;SDS011;13719;48.188;11.618;2023-07-13T03:23:29;4.40;;;2.22;;
25915;SDS011;13719;48.188;11.618;2023-07-13T03:26:01;5.18;;;2.03;;
25915;SDS011;13719;48.188;11.618;2023-07-13T03:28:30;3.38;;;2.10;;
25915;SDS011;13719;48.188;11.618;2023-07-13T03:31:00;4.70;;;1.98;;
25915;SDS011;13719;48.188;11.618;2023-07-13T03:33:29;3.60;;;2.05;;
25915;SDS011;13719;48.188;11.618;2023-07-13T03:35:58;4.53;;;1.90;;
25915;SDS011;13719;48.188;11.618;2023-07-13T03:38:26;6.60;;;2.10;;
25915;SDS011;13719;48.188;11.618;2023-07-13T03:40:55;2.45;;;1.67;;
25915;SDS011;13719;48.188;11.618;2023-07-13T03:43:23;3.50;;;2.35;;
25915;SDS011;13719;48.188;11.618;2023-07-13T03:45:51;2.67;;;2.10;;
25915;SDS011;13719;48.188;11.618;2023-07-13T03:48:21;3.75;;;1.98;;
25915;SDS011;13719;48.188;11.618;2023-07-13T03:50:49;4.70;;;1.80;;
25915;SDS011;13719;48.188;11.618;2023-07-13T03:53:18;2.85;;;1.98;;
25915;SDS011;13719;48.188;11.618;2023-07-13T03:55:46;4.10;;;2.03;;
25915;SDS011;13719;48.188;11.618;2023-07-13T03:58:28;4.47;;;1.98;;
25915;SDS011;13719;48.188;11.618;2023-07-13T04:00:58;5.43;;;2.53;;
25915;SDS011;13719;48.188;11.618;2023-07-13T04:03:28;10.20;;;2.10;;
25915;SDS011;13719;48.188;11.618;2023-07-13T04:05:59;3.97;;;1.80;;
25915;SDS011;13719;48.188;11.618;2023-07-13T04:08:28;6.57;;;1.95;;
25915;SDS011;13719;48.188;11.618;2023-07-13T04:10:57;7.35;;;2.10;;
25915;SDS011;13719;48.188;11.618;2023-07-13T04:13:25;4.38;;;2.03;;
25915;SDS011;13719;48.188;11.618;2023-07-13T04:15:54;4.43;;;2.08;;
25915;SDS011;13719;48.188;11.618;2023-07-13T04:18:22;5.05;;;1.98;;
25915;SDS011;13719;48.188;11.618;2023-07-13T04:20:52;3.67;;;1.70;;
25915;SDS011;13719;48.188;11.618;2023-07-13T04:23:21;3.83;;;2.03;;
25915;SDS011;13719;48.188;11.618;2023-07-13T04:25:51;3.05;;;1.75;;
25915;SDS011;13719;48.188;11.618;2023-07-13T04:28:19;3.72;;;2.08;;
25915;SDS011;13719;48.188;11.618;2023-07-13T04:30:48;3.72;;;1.65;;
25915;SDS011;13719;48.188;11.618;2023-07-13T04:33:16;3.13;;;1.45;;
25915;SDS011;13719;48.188;11.618;2023-07-13T04:35:48;3.70;;;1.50;;
25915;SDS011;13719;48.188;11.618;2023-07-13T04:38:22;2.42;;;1.77;;
25915;SDS011;13719;48.188;11.618;2023-07-13T04:40:52;3.47;;;1.42;;
25915;SDS011;13719;48.188;11.618;2023-07-13T04:43:20;2.53;;;1.58;;
25915;SDS011;13719;48.188;11.618;2023-07-13T04:45:49;2.72;;;1.33;;
25915;SDS011;13719;48.188;11.618;2023-07-13T04:48:18;3.33;;;1.75;;
25915;SDS011;13719;48.188;11.618;2023-07-13T04:50:46;2.72;;;1.60;;
25915;SDS011;13719;48.188;11.618;2023-07-13T04:53:16;16.25;;;2.10;;
25915;SDS011;13719;48.188;11.618;2023-07-13T04:55:45;4.45;;;1.73;;
25915;SDS011;13719;48.188;11.618;2023-07-13T04:58:14;4.82;;;2.10;;
25915;SDS011;13719;48.188;11.618;2023-07-13T05:00:42;4.10;;;1.30;;
25915;SDS011;13719;48.188;11.618;2023-07-13T05:03:11;3.70;;;1.38;;
25915;SDS011;13719;48.188;11.618;2023-07-13T05:05:39;2.08;;;1.42;;
25915;SDS011;13719;48.188;11.618;2023-07-13T05:08:08;1.95;;;1.30;;
25915;SDS011;13719;48.188;11.618;2023-07-13T05:10:36;3.38;;;1.67;;
25915;SDS011;13719;48.188;11.618;2023-07-13T05:13:06;4.43;;;1.30;;
25915;SDS011;13719;48.188;11.618;2023-07-13T05:15:34;3.80;;;1.60;;
25915;SDS011;13719;48.188;11.618;2023-07-13T05:18:03;3.30;;;1.73;;
25915;SDS011;13719;48.188;11.618;2023-07-13T05:20:31;2.25;;;1.42;;
25915;SDS011;13719;48.188;11.618;2023-07-13T05:23:00;3.17;;;1.70;;
25915;SDS011;13719;48.188;11.618;2023-07-13T05:25:29;2.13;;;1.52;;
25915;SDS011;13719;48.188;11.618;2023-07-13T05:27:57;2.72;;;1.60;;
25915;SDS011;13719;48.188;11.618;2023-07-13T05:30:27;5.80;;;1.30;;
25915;SDS011;13719;48.188;11.618;2023-07-13T05:32:55;2.90;;;1.60;;
25915;SDS011;13719;48.188;11.618;2023-07-13T05:35:24;2.35;;;1.23;;
25915;SDS011;13719;48.188;11.618;2023-07-13T05:37:52;3.47;;;1.73;;
25915;SDS011;13719;48.188;11.618;2023-07-13T05:40:21;6.95;;;1.70;;
25915;SDS011;13719;48.188;11.618;2023-07-13T05:42:49;2.22;;;1.48;;
25915;SDS011;13719;48.188;11.618;2023-07-13T05:45:17;1.85;;;1.48;;
25915;SDS011;13719;48.188;11.618;2023-07-13T05:47:47;3.85;;;1.77;;
25915;SDS011;13719;48.188;11.618;2023-07-13T05:50:16;5.38;;;1.90;;
25915;SDS011;13719;48.188;11.618;2023-07-13T05:52:44;3.70;;;1.90;;
25915;SDS011;13719;48.188;11.618;2023-07-13T05:55:13;5.05;;;1.70;;
25915;SDS011;13719;48.188;11.618;2023-07-13T05:57:41;3.08;;;1.92;;
25915;SDS011;13719;48.188;11.618;2023-07-13T06:00:10;2.88;;;1.90;;
25915;SDS011;13719;48.188;11.618;2023-07-13T06:02:38;3.70;;;1.75;;
25915;SDS011;13719;48.188;11.618;2023-07-13T06:05:09;3.35;;;1.75;;
25915;SDS011;13719;48.188;11.618;2023-07-13T06:07:37;3.40;;;1.60;;
25915;SDS011;13719;48.188;11.618;2023-07-13T06:10:06;2.78;;;1.58;;
25915;SDS011;13719;48.188;11.618;2023-07-13T06:12:34;3.50;;;1.90;;
25915;SDS011;13719;48.188;11.618;2023-07-13T06:15:03;3.08;;;2.05;;
25915;SDS011;13719;48.188;11.618;2023-07-13T06:17:31;2.42;;;1.35;;
25915;SDS011;13719;48.188;11.618;2023-07-13T06:20:00;4.15;;;1.80;;
25915;SDS011;13719;48.188;11.618;2023-07-13T06:22:30;3.60;;;1.95;;
25915;SDS011;13719;48.188;11.618;2023-07-13T06:24:58;4.60;;;2.10;;
25915;SDS011;13719;48.188;11.618;2023-07-13T06:27:27;2.55;;;1.60;;
25915;SDS011;13719;48.188;11.618;2023-07-13T06:29:56;5.10;;;2.47;;
25915;SDS011;13719;48.188;11.618;2023-07-13T06:32:25;4.90;;;1.63;;
25915;SDS011;13719;48.188;11.618;2023-07-13T06:34:53;2.42;;;1.83;;
25915;SDS011;13719;48.188;11.618;2023-07-13T06:37:22;3.78;;;1.80;;
25915;SDS011;13719;48.188;11.618;2023-07-13T06:39:51;6.88;;;1.98;;
25915;SDS011;13719;48.188;11.618;2023-07-13T06:42:20;3.83;;;1.95;;
25915;SDS011;13719;48.188;11.618;2023-07-13T06:44:48;4.45;;;2.03;;
25915;SDS011;13719;48.188;11.618;2023-07-13T06:47:17;4.13;;;1.70;;
25915;SDS011;13719;48.188;11.618;2023-07-13T06:49:45;4.75;;;2.45;;
25915;SDS011;13719;48.188;11.618;2023-07-13T06:52:13;2.22;;;1.50;;
25915;SDS011;13719;48.188;11.618;2023-07-13T06:54:42;3.10;;;1.83;;
25915;SDS011;13719;48.188;11.618;2023-07-13T06:57:11;3.33;;;1.55;;
25915;SDS011;13719;48.188;11.618;2023-07-13T06:59:40;4.72;;;1.60;;
25915;SDS011;13719;48.188;11.618;2023-07-13T07:02:08;3.25;;;1.60;;
25915;SDS011;13719;48.188;11.618;2023-07-13T07:04:37;3.70;;;1.50;;
25915;SDS011;13719;48.188;11.618;2023-07-13T07:07:06;4.78;;;1.80;;
25915;SDS011;13719;48.188;11.618;2023-07-13T07:09:34;4.78;;;1.58;;
25915;SDS011;13719;48.188;11.618;2023-07-13T07:12:03;4.07;;;2.10;;
25915;SDS011;13719;48.188;11.618;2023-07-13T07:14:33;8.30;;;2.30;;
25915;SDS011;13719;48.188;11.618;2023-07-13T07:17:01;5.32;;;2.00;;
25915;SDS011;13719;48.188;11.618;2023-07-13T07:19:30;3.25;;;1.67;;
25915;SDS011;13719;48.188;11.618;2023-07-13T07:21:59;2.75;;;1.63;;
25915;SDS011;13719;48.188;11.618;2023-07-13T07:24:27;4.75;;;1.25;;
25915;SDS011;13719;48.188;11.618;2023-07-13T07:26:55;1.90;;;1.20;;
25915;SDS011;13719;48.188;11.618;2023-07-13T07:29:27;4.20;;;1.25;;
25915;SDS011;13719;48.188;11.618;2023-07-13T07:31:59;4.47;;;1.40;;
25915;SDS011;13719;48.188;11.618;2023-07-13T07:34:48;2.22;;;1.20;;
25915;SDS011;13719;48.188;11.618;2023-07-13T07:37:16;2.90;;;1.23;;
25915;SDS011;13719;48.188;11.618;2023-07-13T07:39:47;9.68;;;1.58;;
25915;SDS011;13719;48.188;11.618;2023-07-13T07:42:36;1.83;;;1.15;;
25915;SDS011;13719;48.188;11.618;2023-07-13T07:45:04;3.00;;;1.55;;
25915;SDS011;13719;48.188;11.618;2023-07-13T07:47:34;6.07;;;1.63;;
25915;SDS011;13719;48.188;11.618;2023-07-13T07:50:03;2.30;;;1.35;;
25915;SDS011;13719;48.188;11.618;2023-07-13T07:52:31;3.17;;;1.30;;
25915;SDS011;13719;48.188;11.618;2023-07-13T07:55:00;2.35;;;1.20;;
25915;SDS011;13719;48.188;11.618;2023-07-13T07:57:31;2.00;;;1.20;;
25915;SDS011;13719;48.188;11.618;2023-07-13T08:00:20;2.78;;;1.30;;
25915;SDS011;13719;48.188;11.618;2023-07-13T08:02:53;3.88;;;1.38;;
25915;SDS011;13719;48.188;11.618;2023-07-13T08:05:41;4.80;;;1.27;;
25915;SDS011;13719;48.188;11.618;2023-07-13T08:08:21;3.13;;;1.50;;
25915;SDS011;13719;48.188;11.618;2023-07-13T08:10:49;4.68;;;1.40;;
25915;SDS011;13719;48.188;11.618;2023-07-13T08:13:22;7.18;;;1.50;;
25915;SDS011;13719;48.188;11.618;2023-07-13T08:15:50;2.60;;;1.65;;
25915;SDS011;13719;48.188;11.618;2023-07-13T08:18:20;5.00;;;1.52;;
25915;SDS011;13719;48.188;11.618;2023-07-13T08:20:48;4.15;;;1.58;;
25915;SDS011;13719;48.188;11.618;2023-07-13T08:23:17;2.72;;;1.60;;
25915;SDS011;13719;48.188;11.618;2023-07-13T08:25:50;2.20;;;1.27;;
25915;SDS011;13719;48.188;11.618;2023-07-13T08:28:18;2.58;;;1.42;;
25915;SDS011;13719;48.188;11.618;2023-07-13T08:30:47;2.08;;;1.23;;
25915;SDS011;13719;48.188;11.618;2023-07-13T08:33:15;5.35;;;1.48;;
25915;SDS011;13719;48.188;11.618;2023-07-13T08:35:46;4.28;;;1.50;;
25915;SDS011;13719;48.188;11.618;2023-07-13T08:38:15;2.67;;;1.40;;
25915;SDS011;13719;48.188;11.618;2023-07-13T08:40:43;2.67;;;1.52;;
25915;SDS011;13719;48.188;11.618;2023-07-13T08:43:13;2.55;;;1.10;;
25915;SDS011;13719;48.188;11.618;2023-07-13T08:45:44;2.25;;;1.23;;
25915;SDS011;13719;48.188;11.618;2023-07-13T08:48:14;6.20;;;1.30;;
25915;SDS011;13719;48.188;11.618;2023-07-13T08:50:48;3.33;;;1.30;;
25915;SDS011;13719;48.188;11.618;2023-07-13T08:53:28;5.45;;;1.38;;
25915;SDS011;13719;48.188;11.618;2023-07-13T08:55:58;4.72;;;1.40;;
25915;SDS011;13719;48.188;11.618;2023-07-13T08:58:27;1.42;;;1.00;;
25915;SDS011;13719;48.188;11.618;2023-07-13T09:00:58;2.28;;;1.15;;
25915;SDS011;13719;48.188;11.618;2023-07-13T09:03:33;2.25;;;1.23;;
25915;SDS011;13719;48.188;11.618;2023-07-13T09:06:04;2.97;;;1.20;;
25915;SDS011;13719;48.188;11.618;2023-07-13T09:08:38;2.45;;;1.00;;
25915;SDS011;13719;48.188;11.618;2023-07-13T09:11:16;2.72;;;1.23;;
25915;SDS011;13719;48.188;11.618;2023-07-13T09:13:50;8.98;;;1.65;;
25915;SDS011;13719;48.188;11.618;2023-07-13T09:16:22;3.47;;;0.90;;
25915;SDS011;13719;48.188;11.618;2023-07-13T09:18:51;2.47;;;1.10;;
25915;SDS011;13719;48.188;11.618;2023-07-13T09:21:23;5.18;;;1.20;;
25915;SDS011;13719;48.188;11.618;2023-07-13T09:26:24;3.72;;;1.35;;
25915;SDS011;13719;48.188;11.618;2023-07-13T09:28:53;1.80;;;1.10;;
25915;SDS011;13719;48.188;11.618;2023-07-13T09:31:23;1.45;;;1.13;;
25915;SDS011;13719;48.188;11.618;2023-07-13T09:33:52;2.72;;;1.60;;
25915;SDS011;13719;48.188;11.618;2023-07-13T09:36:23;1.60;;;0.98;;
25915;SDS011;13719;48.188;11.618;2023-07-13T09:38:55;5.55;;;1.10;;
25915;SDS011;13719;48.188;11.618;2023-07-13T09:41:27;1.20;;;0.93;;
25915;SDS011;13719;48.188;11.618;2023-07-13T09:44:09;4.85;;;1.35;;
25915;SDS011;13719;48.188;11.618;2023-07-13T09:46:39;2.55;;;1.27;;
25915;SDS011;13719;48.188;11.618;2023-07-13T09:49:09;4.90;;;1.20;;
25915;SDS011;13719;48.188;11.618;2023-07-13T09:51:39;1.17;;;0.82;;
25915;SDS011;13719;48.188;11.618;2023-07-13T09:54:17;1.33;;;0.90;;
25915;SDS011;13719;48.188;11.618;2023-07-13T09:56:46;2.35;;;0.95;;
25915;SDS011;13719;48.188;11.618;2023-07-13T09:59:18;7.78;;;1.50;;
25915;SDS011;13719;48.188;11.618;2023-07-13T10:01:47;3.47;;;1.30;;
25915;SDS011;13719;48.188;11.618;2023-07-13T10:04:17;1.75;;;1.00;;
25915;SDS011;13719;48.188;11.618;2023-07-13T10:06:47;2.75;;;0.93;;
25915;SDS011;13719;48.188;11.618;2023-07-13T10:09:18;2.10;;;0.90;;
25915;SDS011;13719;48.188;11.618;2023-07-13T10:11:46;2.60;;;0.90;;
25915;SDS011;13719;48.188;11.618;2023-07-13T10:14:20;3.80;;;0.95;;
25915;SDS011;13719;48.188;11.618;2023-07-13T10:16:49;2.28;;;1.40;;
25915;SDS011;13719;48.188;11.618;2023-07-13T10:19:21;3.40;;;1.15;;
25915;SDS011;13719;48.188;11.618;2023-07-13T10:21:54;2.92;;;0.90;;
25915;SDS011;13719;48.188;11.618;2023-07-13T10:24:23;2.22;;;1.30;;
25915;SDS011;13719;48.188;11.618;2023-07-13T10:26:53;1.95;;;0.82;;
25915;SDS011;13719;48.188;11.618;2023-07-13T10:29:24;2.13;;;1.17;;
25915;SDS011;13719;48.188;11.618;2023-07-13T10:31:54;3.03;;;1.02;;
25915;SDS011;13719;48.188;11.618;2023-07-13T10:34:24;3.80;;;1.00;;
25915;SDS011;13719;48.188;11.618;2023-07-13T10:36:54;1.85;;;1.10;;
25915;SDS011;13719;48.188;11.618;2023-07-13T10:39:23;2.15;;;0.93;;
25915;SDS011;13719;48.188;11.618;2023-07-13T10:41:54;3.95;;;0.93;;
25915;SDS011;13719;48.188;11.618;2023-07-13T10:44:23;3.60;;;1.00;;
25915;SDS011;13719;48.188;11.618;2023-07-13T10:46:55;3.28;;;1.10;;
25915;SDS011;13719;48.188;11.618;2023-07-13T10:49:24;2.55;;;0.93;;
25915;SDS011;13719;48.188;11.618;2023-07-13T10:51:54;2.95;;;0.95;;
25915;SDS011;13719;48.188;11.618;2023-07-13T10:54:26;3.55;;;1.10;;
25915;SDS011;13719;48.188;11.618;2023-07-13T10:57:07;1.83;;;1.13;;
25915;SDS011;13719;48.188;11.618;2023-07-13T10:59:35;2.40;;;1.02;;
25915;SDS011;13719;48.188;11.618;2023-07-13T11:02:09;1.30;;;0.80;;
25915;SDS011;13719;48.188;11.618;2023-07-13T11:04:42;3.92;;;1.10;;
25915;SDS011;13719;48.188;11.618;2023-07-13T11:07:17;4.72;;;1.00;;
25915;SDS011;13719;48.188;11.618;2023-07-13T11:09:49;5.82;;;0.95;;
25915;SDS011;13719;48.188;11.618;2023-07-13T11:12:28;3.35;;;1.10;;
25915;SDS011;13719;48.188;11.618;2023-07-13T11:15:02;2.70;;;1.02;;
25915;SDS011;13719;48.188;11.618;2023-07-13T11:17:34;5.65;;;0.88;;
25915;SDS011;13719;48.188;11.618;2023-07-13T11:20:09;4.38;;;1.40;;
25915;SDS011;13719;48.188;11.618;2023-07-13T11:22:43;2.97;;;0.90;;
25915;SDS011;13719;48.188;11.618;2023-07-13T11:25:29;1.77;;;1.08;;
25915;SDS011;13719;48.188;11.618;2023-07-13T11:28:06;4.90;;;1.00;;
25915;SDS011;13719;48.188;11.618;2023-07-13T11:30:37;2.30;;;0.90;;
25915;SDS011;13719;48.188;11.618;2023-07-13T11:33:14;1.75;;;0.90;;
25915;SDS011;13719;48.188;11.618;2023-07-13T11:35:45;4.28;;;1.20;;
25915;SDS011;13719;48.188;11.618;2023-07-13T11:38:17;1.92;;;0.85;;
25915;SDS011;13719;48.188;11.618;2023-07-13T11:40:47;3.05;;;1.15;;
25915;SDS011;13719;48.188;11.618;2023-07-13T11:43:22;2.30;;;1.20;;
25915;SDS011;13719;48.188;11.618;2023-07-13T11:45:51;1.00;;;0.90;;
25915;SDS011;13719;48.188;11.618;2023-07-13T11:48:21;2.72;;;1.30;;
25915;SDS011;13719;48.188;11.618;2023-07-13T11:50:55;1.77;;;0.93;;
25915;SDS011;13719;48.188;11.618;2023-07-13T11:53:27;1.77;;;1.15;;
25915;SDS011;13719;48.188;11.618;2023-07-13T11:55:57;2.78;;;1.23;;
25915;SDS011;13719;48.188;11.618;2023-07-13T11:58:26;2.58;;;1.30;;
25915;SDS011;13719;48.188;11.618;2023-07-13T12:00:55;2.00;;;0.90;;
25915;SDS011;13719;48.188;11.618;2023-07-13T12:03:27;1.63;;;0.95;;
25915;SDS011;13719;48.188;11.618;2023-07-13T12:05:56;1.17;;;0.90;;
25915;SDS011;13719;48.188;11.618;2023-07-13T12:08:27;1.55;;;1.00;;
25915;SDS011;13719;48.188;11.618;2023-07-13T12:10:56;1.65;;;1.13;;
25915;SDS011;13719;48.188;11.618;2023-07-13T12:13:26;1.67;;;1.23;;
25915;SDS011;13719;48.188;11.618;2023-07-13T12:15:55;1.30;;;1.00;;
25915;SDS011;13719;48.188;11.618;2023-07-13T12:18:28;2.35;;;0.93;;
25915;SDS011;13719;48.188;11.618;2023-07-13T12:20:58;1.25;;;0.80;;
25915;SDS011;13719;48.188;11.618;2023-07-13T12:23:29;1.67;;;0.90;;
25915;SDS011;13719;48.188;11.618;2023-07-13T12:25:59;1.02;;;0.70;;
25915;SDS011;13719;48.188;11.618;2023-07-13T12:28:31;3.33;;;0.93;;
25915;SDS011;13719;48.188;11.618;2023-07-13T12:31:00;3.20;;;1.08;;
25915;SDS011;13719;48.188;11.618;2023-07-13T12:33:29;1.65;;;1.17;;
25915;SDS011;13719;48.188;11.618;2023-07-13T12:35:59;1.95;;;0.93;;
25915;SDS011;13719;48.188;11.618;2023-07-13T12:38:31;1.50;;;1.13;;
25915;SDS011;13719;48.188;11.618;2023-07-13T12:41:00;2.40;;;0.98;;
25915;SDS011;13719;48.188;11.618;2023-07-13T12:43:30;1.88;;;0.90;;
25915;SDS011;13719;48.188;11.618;2023-07-13T12:46:04;3.72;;;1.30;;
25915;SDS011;13719;48.188;11.618;2023-07-13T12:48:37;2.17;;;1.10;;
25915;SDS011;13719;48.188;11.618;2023-07-13T12:51:20;3.42;;;1.17;;
25915;SDS011;13719;48.188;11.618;2023-07-13T12:53:51;2.15;;;1.05;;
25915;SDS011;13719;48.188;11.618;2023-07-13T12:56:23;2.25;;;0.90;;
25915;SDS011;13719;48.188;11.618;2023-07-13T12:58:56;1.35;;;0.80;;
25915;SDS011;13719;48.188;11.618;2023-07-13T13:01:26;2.08;;;1.48;;
25915;SDS011;13719;48.188;11.618;2023-07-13T13:03:55;4.20;;;1.20;;
25915;SDS011;13719;48.188;11.618;2023-07-13T13:06:25;1.40;;;0.90;;
25915;SDS011;13719;48.188;11.618;2023-07-13T13:08:56;2.88;;;0.85;;
25915;SDS011;13719;48.188;11.618;2023-07-13T13:11:25;2.95;;;0.85;;
25915;SDS011;13719;48.188;11.618;2023-07-13T13:13:54;2.05;;;1.00;;
25915;SDS011;13719;48.188;11.618;2023-07-13T13:16:23;1.63;;;0.90;;
25915;SDS011;13719;48.188;11.618;2023-07-13T13:18:53;3.35;;;1.08;;
25915;SDS011;13719;48.188;11.618;2023-07-13T13:21:23;1.98;;;0.98;;
25915;SDS011;13719;48.188;11.618;2023-07-13T13:23:52;2.28;;;0.90;;
25915;SDS011;13719;48.188;11.618;2023-07-13T13:26:22;3.70;;;1.23;;
25915;SDS011;13719;48.188;11.618;2023-07-13T13:28:51;4.65;;;1.10;;
25915;SDS011;13719;48.188;11.618;2023-07-13T13:31:20;4.30;;;0.88;;
25915;SDS011;13719;48.188;11.618;2023-07-13T13:33:48;1.20;;;0.85;;
25915;SDS011;13719;48.188;11.618;2023-07-13T13:36:17;1.92;;;0.90;;
25915;SDS011;13719;48.188;11.618;2023-07-13T13:38:46;1.92;;;0.85;;
25915;SDS011;13719;48.188;11.618;2023-07-13T13:41:15;1.45;;;1.00;;
25915;SDS011;13719;48.188;11.618;2023-07-13T13:43:45;3.63;;;1.13;;
25915;SDS011;13719;48.188;11.618;2023-07-13T13:46:17;1.63;;;0.90;;
25915;SDS011;13719;48.188;11.618;2023-07-13T13:48:46;2.78;;;1.02;;
25915;SDS011;13719;48.188;11.618;2023-07-13T13:51:15;2.42;;;0.88;;
25915;SDS011;13719;48.188;11.618;2023-07-13T13:53:44;3.80;;;0.95;;
25915;SDS011;13719;48.188;11.618;2023-07-13T13:56:13;2.78;;;1.08;;
25915;SDS011;13719;48.188;11.618;2023-07-13T13:58:42;1.67;;;0.82;;
25915;SDS011;13719;48.188;11.618;2023-07-13T14:01:13;5.22;;;0.80;;
25915;SDS011;13719;48.188;11.618;2023-07-13T14:03:43;2.58;;;0.93;;
25915;SDS011;13719;48.188;11.618;2023-07-13T14:06:12;1.52;;;0.73;;
25915;SDS011;13719;48.188;11.618;2023-07-13T14:08:40;1.10;;;0.60;;
25915;SDS011;13719;48.188;11.618;2023-07-13T14:11:10;1.48;;;0.98;;
25915;SDS011;13719;48.188;11.618;2023-07-13T14:13:40;1.05;;;0.60;;
25915;SDS011;13719;48.188;11.618;2023-07-13T14:16:11;1.35;;;0.90;;
25915;SDS011;13719;48.188;11.618;2023-07-13T14:18:42;1.50;;;0.90;;
25915;SDS011;13719;48.188;11.618;2023-07-13T14:21:13;1.45;;;0.70;;
25915;SDS011;13719;48.188;11.618;2023-07-13T14:23:43;2.55;;;0.93;;
25915;SDS011;13719;48.188;11.618;2023-07-13T14:26:12;1.77;;;0.70;;
25915;SDS011;13719;48.188;11.618;2023-07-13T14:28:41;1.60;;;0.90;;
25915;SDS011;13719;48.188;11.618;2023-07-13T14:31:10;1.48;;;1.00;;
25915;SDS011;13719;48.188;11.618;2023-07-13T14:33:38;3.03;;;0.90;;
25915;SDS011;13719;48.188;11.618;2023-07-13T14:36:13;1.88;;;0.90;;
25915;SDS011;13719;48.188;11.618;2023-07-13T14:38:44;1.10;;;0.70;;
25915;SDS011;13719;48.188;11.618;2023-07-13T14:41:13;0.95;;;0.80;;
25915;SDS011;13719;48.188;11.618;2023-07-13T14:43:41;3.17;;;1.00;;
25915;SDS011;13719;48.188;11.618;2023-07-13T14:46:11;1.30;;;0.70;;
25915;SDS011;13719;48.188;11.618;2023-07-13T14:48:46;1.98;;;1.17;;
25915;SDS011;13719;48.188;11.618;2023-07-13T14:51:16;4.20;;;1.75;;
25915;SDS011;13719;48.188;11.618;2023-07-13T14:53:44;1.70;;;0.90;;
25915;SDS011;13719;48.188;11.618;2023-07-13T14:56:13;1.23;;;0.90;;